createdAt,value
2019-01-09T00:01:09.110Z,97155.91
2019-01-09T00:03:38.025Z,97149.95
2019-01-09T00:06:07.002Z,97141.75
2019-01-09T00:08:36.171Z,97142.72
2019-01-09T00:11:05.136Z,97139.59
2019-01-09T00:13:34.119Z,97150.19
2019-01-09T00:16:03.126Z,97140.09
2019-01-09T00:18:32.080Z,97141.41
2019-01-09T00:21:01.085Z,97130.39
2019-01-09T00:23:30.067Z,97122.17
2019-01-09T00:25:59.143Z,97120.04
2019-01-09T00:28:28.116Z,97127.93
2019-01-09T00:30:57.081Z,97128.55
2019-01-09T00:33:26.006Z,97112.35
2019-01-09T00:35:55.082Z,97124.88
2019-01-09T00:38:24.102Z,97115.38
2019-01-09T00:40:53.074Z,97115.66
2019-01-09T00:43:22.026Z,97113.23
2019-01-09T00:45:50.994Z,97106.56
2019-01-09T00:48:19.961Z,97112.11
2019-01-09T00:50:48.927Z,97101.57
2019-01-09T00:53:17.890Z,97096.31
2019-01-09T00:55:46.952Z,97089.34
2019-01-09T00:58:16.266Z,97097.20
2019-01-09T01:00:45.279Z,97105.19
2019-01-09T01:03:48.383Z,97098.25
2019-01-09T01:06:51.320Z,97087.68
2019-01-09T01:10:00.912Z,97120.13
2019-01-09T01:13:13.071Z,97112.92
2019-01-09T01:16:34.390Z,97121.06
2019-01-09T01:19:46.579Z,97113.77
2019-01-09T01:22:42.028Z,97120.69
2019-01-09T01:25:29.462Z,97113.28
2019-01-09T01:28:38.309Z,97123.50
2019-01-09T01:31:26.743Z,97114.05
2019-01-09T01:34:48.962Z,97112.51
2019-01-09T01:38:02.064Z,97103.73
2019-01-09T01:41:00.481Z,97103.82
2019-01-09T01:44:25.791Z,97098.27
2019-01-09T01:47:45.152Z,97099.48
2019-01-09T01:50:31.085Z,97068.94
2019-01-09T01:53:59.469Z,97085.54
2019-01-09T01:57:09.883Z,97085.89
2019-01-09T01:59:54.317Z,97067.77
2019-01-09T02:03:06.706Z,97083.94
2019-01-09T02:05:43.456Z,97084.16
2019-01-09T02:08:38.422Z,97104.97
2019-01-09T02:11:59.936Z,97082.42
2019-01-09T02:15:00.713Z,97077.07
2019-01-09T02:17:51.783Z,97102.47
2019-01-09T02:20:54.740Z,97100.57
2019-01-09T02:23:41.440Z,97078.83
2019-01-09T02:26:31.190Z,97083.19
2019-01-09T02:29:41.447Z,97092.88
2019-01-09T02:32:29.102Z,97103.19
2019-01-09T02:34:58.122Z,97073.16
2019-01-09T02:37:27.295Z,97093.98
2019-01-09T02:39:56.255Z,97103.31
2019-01-09T02:42:25.337Z,97107.10
2019-01-09T02:44:54.366Z,97105.31
2019-01-09T02:47:23.429Z,97111.56
2019-01-09T02:49:52.464Z,97106.77
2019-01-09T02:52:21.527Z,97125.38
2019-01-09T02:54:50.552Z,97114.58
2019-01-09T02:57:19.601Z,97107.23
2019-01-09T02:59:48.527Z,97111.30
2019-01-09T03:02:17.510Z,97100.77
2019-01-09T03:04:46.490Z,97102.44
2019-01-09T03:07:15.313Z,97104.14
2019-01-09T03:09:44.223Z,97099.34
2019-01-09T03:12:13.197Z,97101.25
2019-01-09T03:14:42.279Z,97094.23
2019-01-09T03:17:11.263Z,97086.88
2019-01-09T03:19:40.149Z,97089.40
2019-01-09T03:22:09.166Z,97082.37
2019-01-09T03:24:38.135Z,97085.75
2019-01-09T03:27:07.043Z,97073.91
2019-01-09T03:29:36.011Z,97069.38
2019-01-09T03:32:05.005Z,97070.91
2019-01-09T03:34:33.990Z,97065.16
2019-01-09T03:37:02.977Z,97070.09
2019-01-09T03:39:31.969Z,97060.20
2019-01-09T03:42:00.961Z,97063.67
2019-01-09T03:44:29.959Z,97062.12
2019-01-09T03:46:58.944Z,97070.00
2019-01-09T03:49:27.766Z,97075.88
2019-01-09T03:51:56.654Z,97069.33
2019-01-09T03:54:25.557Z,97058.77
2019-01-09T03:56:54.523Z,97048.20
2019-01-09T03:59:23.439Z,97062.77
2019-01-09T04:01:52.342Z,97062.06
2019-01-09T04:04:21.251Z,97048.43
2019-01-09T04:06:50.140Z,97071.87
2019-01-09T04:09:19.133Z,97069.44
2019-01-09T04:11:48.118Z,97067.92
2019-01-09T04:14:17.086Z,97064.88
2019-01-09T04:16:45.966Z,97071.54
2019-01-09T04:19:14.866Z,97077.80
2019-01-09T04:21:43.829Z,97066.44
2019-01-09T04:24:12.737Z,97079.64
2019-01-09T04:26:41.579Z,97075.92
2019-01-09T04:29:10.406Z,97076.48
2019-01-09T04:31:39.238Z,97084.16
2019-01-09T04:34:08.173Z,97078.84
2019-01-09T04:36:37.059Z,97068.59
2019-01-09T04:39:06.977Z,97076.77
2019-01-09T04:41:35.866Z,97072.11
2019-01-09T04:44:04.855Z,97072.73
2019-01-09T04:46:33.743Z,97070.53
2019-01-09T04:49:02.576Z,97071.44
2019-01-09T04:51:31.548Z,97065.86
2019-01-09T04:54:00.401Z,97067.10
2019-01-09T04:56:29.372Z,97064.97
2019-01-09T04:58:58.284Z,97063.86
2019-01-09T05:01:27.172Z,97061.92
2019-01-09T05:03:56.162Z,97066.70
2019-01-09T05:06:25.054Z,97060.03
2019-01-09T05:08:53.957Z,97076.33
2019-01-09T05:11:22.855Z,97074.30
2019-01-09T05:13:51.806Z,97077.97
2019-01-09T05:16:20.760Z,97077.22
2019-01-09T05:18:49.573Z,97076.03
2019-01-09T05:21:18.541Z,97068.77
2019-01-09T05:23:47.433Z,97066.55
2019-01-09T05:26:16.279Z,97074.94
2019-01-09T05:28:45.170Z,97077.34
2019-01-09T05:31:13.997Z,97076.80
2019-01-09T05:33:42.885Z,97074.69
2019-01-09T05:36:11.876Z,97075.02
2019-01-09T05:38:40.789Z,97080.17
2019-01-09T05:41:09.765Z,97080.11
2019-01-09T05:43:38.591Z,97084.70
2019-01-09T05:46:07.519Z,97087.66
2019-01-09T05:48:36.496Z,97102.85
2019-01-09T05:51:05.405Z,97096.48
2019-01-09T05:53:34.413Z,97102.00
2019-01-09T05:56:03.400Z,97100.40
2019-01-09T05:58:32.217Z,97105.25
2019-01-09T06:01:01.175Z,97112.19
2019-01-09T06:03:30.143Z,97114.88
2019-01-09T06:05:59.114Z,97108.71
2019-01-09T06:08:27.923Z,97092.66
2019-01-09T06:10:56.837Z,97097.25
2019-01-09T06:13:25.805Z,97102.83
2019-01-09T06:15:54.732Z,97108.80
2019-01-09T06:18:23.620Z,97099.48
2019-01-09T06:20:52.466Z,97105.64
2019-01-09T06:23:21.344Z,97106.07
2019-01-09T06:25:50.172Z,97110.70
2019-01-09T06:28:19.074Z,97107.77
2019-01-09T06:30:47.963Z,97109.41
2019-01-09T06:33:16.869Z,97111.09
2019-01-09T06:35:45.847Z,97104.63
2019-01-09T06:38:14.856Z,97110.88
2019-01-09T06:40:43.799Z,97115.48
2019-01-09T06:43:12.777Z,97113.30
2019-01-09T06:45:41.585Z,97116.98
2019-01-09T06:48:10.701Z,97118.86
2019-01-09T06:50:39.672Z,97115.12
2019-01-09T06:53:08.578Z,97116.74
2019-01-09T06:55:37.511Z,97122.87
2019-01-09T06:58:06.288Z,97123.20
2019-01-09T07:00:35.246Z,97129.82
2019-01-09T07:03:04.064Z,97129.44
2019-01-09T07:05:32.945Z,97128.37
2019-01-09T07:08:01.784Z,97136.57
2019-01-09T07:10:30.670Z,97129.87
2019-01-09T07:12:59.587Z,97131.62
2019-01-09T07:15:28.479Z,97134.48
2019-01-09T07:17:57.289Z,97137.36
2019-01-09T07:20:26.267Z,97135.17
2019-01-09T07:22:55.258Z,97138.52
2019-01-09T07:25:24.083Z,97137.30
2019-01-09T07:27:53.054Z,97132.44
2019-01-09T07:30:22.031Z,97136.67
2019-01-09T07:32:50.937Z,97144.00
2019-01-09T07:35:19.833Z,97139.03
2019-01-09T07:37:48.821Z,97151.34
2019-01-09T07:40:18.897Z,97141.59
2019-01-09T07:42:47.981Z,97135.46
2019-01-09T07:45:16.863Z,97142.91
2019-01-09T07:47:45.801Z,97139.16
2019-01-09T07:50:14.775Z,97137.76
2019-01-09T07:52:43.599Z,97137.20
2019-01-09T07:55:12.554Z,97142.75
2019-01-09T07:57:41.457Z,97138.55
2019-01-09T08:00:11.673Z,97135.93
2019-01-09T08:02:40.636Z,97145.42
2019-01-09T08:05:09.580Z,97143.52
2019-01-09T08:07:38.465Z,97160.59
2019-01-09T08:10:09.184Z,97155.16
2019-01-09T08:12:38.148Z,97154.39
2019-01-09T08:15:07.883Z,97155.53
2019-01-09T08:17:36.779Z,97163.11
2019-01-09T08:20:06.390Z,97157.99
2019-01-09T08:22:35.345Z,97163.55
2019-01-09T08:25:04.357Z,97165.87
2019-01-09T08:27:33.310Z,97171.72
2019-01-09T08:30:02.135Z,97172.98
2019-01-09T08:32:31.128Z,97172.94
2019-01-09T08:34:59.966Z,97177.17
2019-01-09T08:37:28.771Z,97182.61
2019-01-09T08:39:57.745Z,97188.14
2019-01-09T08:42:26.738Z,97188.49
2019-01-09T08:44:55.632Z,97189.75
2019-01-09T08:47:24.456Z,97188.30
2019-01-09T08:49:53.353Z,97194.13
2019-01-09T08:52:22.451Z,97190.38
2019-01-09T08:54:51.361Z,97196.56
2019-01-09T08:57:20.329Z,97190.48
2019-01-09T08:59:49.227Z,97191.36
2019-01-09T09:02:18.296Z,97204.19
2019-01-09T09:04:47.305Z,97195.74
2019-01-09T09:07:17.972Z,97202.44
2019-01-09T09:09:46.938Z,97205.31
2019-01-09T09:12:15.823Z,97208.67
2019-01-09T09:14:44.720Z,97200.30
2019-01-09T09:17:13.606Z,97212.60
2019-01-09T09:19:42.516Z,97216.44
2019-01-09T09:22:11.468Z,97217.42
2019-01-09T09:24:40.271Z,97220.00
2019-01-09T09:27:09.236Z,97223.39
2019-01-09T09:29:38.193Z,97215.43
2019-01-09T09:32:07.166Z,97223.83
2019-01-09T09:34:35.983Z,97227.86
2019-01-09T09:37:04.969Z,97222.23
2019-01-09T09:39:33.856Z,97225.25
2019-01-09T09:42:02.760Z,97233.27
2019-01-09T09:44:31.639Z,97230.50
2019-01-09T09:47:00.539Z,97227.05
2019-01-09T09:49:29.432Z,97221.95
2019-01-09T09:51:58.266Z,97228.81
2019-01-09T09:54:27.143Z,97231.68
2019-01-09T09:56:56.056Z,97238.82
2019-01-09T09:59:24.858Z,97233.63
2019-01-09T10:01:53.981Z,97240.95
2019-01-09T10:04:22.821Z,97232.39
2019-01-09T10:06:51.733Z,97229.82
2019-01-09T10:09:20.616Z,97239.27
2019-01-09T10:11:49.510Z,97235.18
2019-01-09T10:14:18.472Z,97240.27
2019-01-09T10:16:47.429Z,97244.45
2019-01-09T10:19:16.305Z,97241.25
2019-01-09T10:21:45.204Z,97226.62
2019-01-09T10:24:14.098Z,97235.76
2019-01-09T10:26:42.977Z,97235.38
2019-01-09T10:29:11.865Z,97230.06
2019-01-09T10:31:40.765Z,97237.70
2019-01-09T10:34:09.648Z,97225.25
2019-01-09T10:36:38.618Z,97237.07
2019-01-09T10:39:09.658Z,97240.71
2019-01-09T10:41:38.481Z,97229.00
2019-01-09T10:44:07.454Z,97227.05
2019-01-09T10:46:36.416Z,97236.50
2019-01-09T10:49:05.404Z,97232.55
2019-01-09T10:51:34.375Z,97228.89
2019-01-09T10:54:03.349Z,97223.80
2019-01-09T10:56:32.310Z,97232.63
2019-01-09T10:59:01.270Z,97227.05
2019-01-09T11:01:30.209Z,97231.67
2019-01-09T11:03:59.201Z,97225.69
2019-01-09T11:06:28.145Z,97230.70
2019-01-09T11:08:56.966Z,97231.38
2019-01-09T11:11:25.770Z,97229.39
2019-01-09T11:13:54.708Z,97225.01
2019-01-09T11:16:23.487Z,97229.39
2019-01-09T11:18:52.419Z,97231.33
2019-01-09T11:21:21.329Z,97220.38
2019-01-09T11:23:50.421Z,97223.83
2019-01-09T11:26:19.523Z,97226.77
2019-01-09T11:28:48.552Z,97217.57
2019-01-09T11:31:17.699Z,97217.38
2019-01-09T11:33:46.688Z,97228.38
2019-01-09T11:36:15.534Z,97215.81
2019-01-09T11:38:44.565Z,97218.20
2019-01-09T11:41:13.638Z,97216.94
2019-01-09T11:43:42.551Z,97213.05
2019-01-09T11:46:11.605Z,97214.55
2019-01-09T11:48:40.498Z,97216.74
2019-01-09T11:51:09.485Z,97226.31
2019-01-09T11:53:38.440Z,97220.88
2019-01-09T11:56:07.408Z,97221.94
2019-01-09T11:58:36.299Z,97214.25
2019-01-09T12:01:05.803Z,97214.06
2019-01-09T12:03:34.878Z,97224.61
2019-01-09T12:06:03.867Z,97223.98
2019-01-09T12:08:32.883Z,97223.30
2019-01-09T12:11:02.126Z,97219.17
2019-01-09T12:13:31.541Z,97216.24
2019-01-09T12:16:08.008Z,97208.67
2019-01-09T12:18:31.341Z,97219.69
2019-01-09T12:21:00.366Z,97224.26
2019-01-09T12:23:29.488Z,97226.44
2019-01-09T12:25:58.572Z,97222.36
2019-01-09T12:28:27.589Z,97225.57
2019-01-09T12:30:56.696Z,97235.44
2019-01-09T12:33:25.801Z,97239.17
2019-01-09T12:35:54.860Z,97235.84
2019-01-09T12:38:23.909Z,97234.83
2019-01-09T12:40:52.865Z,97241.20
2019-01-09T12:43:21.844Z,97232.23
2019-01-09T12:45:50.742Z,97244.11
2019-01-09T12:48:19.633Z,97240.86
2019-01-09T12:50:48.624Z,97246.43
2019-01-09T12:53:17.571Z,97247.03
2019-01-09T12:55:46.471Z,97243.99
2019-01-09T12:58:15.578Z,97255.56
2019-01-09T13:00:44.387Z,97246.38
2019-01-09T13:03:14.207Z,97257.26
2019-01-09T13:05:43.194Z,97255.71
2019-01-09T13:08:12.097Z,97262.27
2019-01-09T13:10:40.997Z,97263.58
2019-01-09T13:13:09.810Z,97268.55
2019-01-09T13:15:38.818Z,97266.67
2019-01-09T13:18:07.705Z,97260.03
2019-01-09T13:20:36.663Z,97268.55
2019-01-09T13:23:05.732Z,97273.87
2019-01-09T13:25:34.724Z,97271.84
2019-01-09T13:28:03.613Z,97270.34
2019-01-09T13:30:32.602Z,97280.80
2019-01-09T13:33:01.516Z,97269.45
2019-01-09T13:35:30.601Z,97277.01
2019-01-09T13:37:59.511Z,97279.78
2019-01-09T13:40:28.494Z,97279.07
2019-01-09T13:42:57.381Z,97285.67
2019-01-09T13:45:26.369Z,97280.57
2019-01-09T13:47:55.357Z,97275.70
2019-01-09T13:50:24.333Z,97267.91
2019-01-09T13:52:53.290Z,97286.08
2019-01-09T13:55:22.329Z,97278.33
2019-01-09T13:57:51.202Z,97285.85
2019-01-09T14:00:21.784Z,97291.44
2019-01-09T14:02:50.766Z,97294.55
2019-01-09T14:05:19.732Z,97292.48
2019-01-09T14:07:48.719Z,97297.91
2019-01-09T14:10:19.990Z,97299.41
2019-01-09T14:12:48.963Z,97299.59
2019-01-09T14:15:19.485Z,97304.17
2019-01-09T14:17:48.836Z,97298.06
2019-01-09T14:20:18.013Z,97303.39
2019-01-09T14:22:47.013Z,97306.55
2019-01-09T14:25:16.182Z,97299.56
2019-01-09T14:27:45.508Z,97310.70
2019-01-09T14:30:20.399Z,97318.53
2019-01-09T14:32:49.394Z,97311.52
2019-01-09T14:35:18.395Z,97320.45
2019-01-09T14:37:47.379Z,97319.92
2019-01-09T14:40:16.432Z,97325.81
2019-01-09T14:42:45.401Z,97321.64
2019-01-09T14:45:14.749Z,97321.53
2019-01-09T14:47:43.704Z,97328.13
2019-01-09T14:50:16.258Z,97316.36
2019-01-09T14:52:45.165Z,97321.88
2019-01-09T14:55:14.604Z,97322.39
2019-01-09T14:57:44.091Z,97326.19
2019-01-09T15:00:21.692Z,97327.01
2019-01-09T15:02:50.669Z,97327.60
2019-01-09T15:05:19.690Z,97333.83
2019-01-09T15:07:48.615Z,97332.06
2019-01-09T15:10:19.887Z,97335.70
2019-01-09T15:12:49.089Z,97334.88
2019-01-09T15:15:18.232Z,97344.02
2019-01-09T15:17:47.308Z,97342.98
2019-01-09T15:20:17.473Z,97343.89
2019-01-09T15:22:46.368Z,97345.20
2019-01-09T15:25:15.554Z,97347.83
2019-01-09T15:27:44.531Z,97345.91
2019-01-09T15:30:22.291Z,97350.70
2019-01-09T15:32:51.294Z,97338.84
2019-01-09T15:35:20.323Z,97350.00
2019-01-09T15:37:49.302Z,97351.83
2019-01-09T15:40:20.277Z,97338.94
2019-01-09T15:42:49.666Z,97358.66
2019-01-09T15:45:18.630Z,97350.97
2019-01-09T15:47:47.729Z,97350.95
2019-01-09T15:50:18.069Z,97348.96
2019-01-09T15:52:47.071Z,97350.30
2019-01-09T15:55:16.380Z,97353.63
2019-01-09T15:57:45.533Z,97351.00
2019-01-09T16:00:26.057Z,97362.28
2019-01-09T16:02:55.556Z,97369.23
2019-01-09T16:05:24.656Z,97366.45
2019-01-09T16:07:53.881Z,97368.40
2019-01-09T16:10:22.856Z,97368.89
2019-01-09T16:12:51.833Z,97375.78
2019-01-09T16:15:20.836Z,97374.47
2019-01-09T16:17:49.903Z,97377.94
2019-01-09T16:20:19.377Z,97379.61
2019-01-09T16:22:48.342Z,97389.52
2019-01-09T16:25:17.642Z,97389.86
2019-01-09T16:27:46.529Z,97396.08
2019-01-09T16:30:45.461Z,97401.88
2019-01-09T16:33:14.307Z,97393.27
2019-01-09T16:35:43.323Z,97396.56
2019-01-09T16:38:12.281Z,97401.28
2019-01-09T16:40:41.283Z,97390.66
2019-01-09T16:43:10.125Z,97406.50
2019-01-09T16:45:39.437Z,97395.55
2019-01-09T16:48:08.343Z,97404.52
2019-01-09T16:50:37.343Z,97401.92
2019-01-09T16:53:06.322Z,97398.82
2019-01-09T16:55:35.310Z,97399.69
2019-01-09T16:58:04.458Z,97406.50
2019-01-09T17:00:33.473Z,97402.86
2019-01-09T17:03:02.365Z,97396.46
2019-01-09T17:05:31.376Z,97404.88
2019-01-09T17:08:00.349Z,97408.84
2019-01-09T17:10:32.543Z,97406.88
2019-01-09T17:13:00.108Z,97406.39
2019-01-09T17:15:29.050Z,97412.30
2019-01-09T17:17:58.077Z,97421.11
2019-01-09T17:20:27.103Z,97414.72
2019-01-09T17:22:56.455Z,97413.88
2019-01-09T17:25:25.450Z,97426.03
2019-01-09T17:27:54.335Z,97424.56
2019-01-09T17:30:25.069Z,97436.46
2019-01-09T17:32:54.107Z,97433.37
2019-01-09T17:35:23.259Z,97438.41
2019-01-09T17:37:52.299Z,97431.27
2019-01-09T17:40:21.641Z,97434.20
2019-01-09T17:42:51.261Z,97433.27
2019-01-09T17:45:20.400Z,97442.04
2019-01-09T17:47:49.364Z,97439.63
2019-01-09T17:50:24.561Z,97439.33
2019-01-09T17:52:53.902Z,97438.97
2019-01-09T17:55:22.872Z,97444.48
2019-01-09T17:57:51.764Z,97439.70
2019-01-09T18:00:23.218Z,97443.85
2019-01-09T18:02:52.167Z,97451.41
2019-01-09T18:05:21.398Z,97441.23
2019-01-09T18:07:52.118Z,97450.55
2019-01-09T18:10:22.005Z,97453.54
2019-01-09T18:12:50.935Z,97451.23
2019-01-09T18:15:21.486Z,97454.14
2019-01-09T18:17:50.552Z,97449.14
2019-01-09T18:20:19.847Z,97456.00
2019-01-09T18:22:48.824Z,97451.60
2019-01-09T18:25:19.692Z,97451.23
2019-01-09T18:27:48.709Z,97446.98
2019-01-09T18:30:20.981Z,97453.67
2019-01-09T18:33:13.742Z,97466.29
2019-01-09T18:36:20.719Z,97464.98
2019-01-09T18:39:21.707Z,97449.91
2019-01-09T18:42:36.923Z,97467.42
2019-01-09T18:45:32.702Z,97470.81
2019-01-09T18:48:27.547Z,97479.88
2019-01-09T18:51:46.290Z,97478.37
2019-01-09T18:54:15.274Z,97479.33
2019-01-09T18:56:44.208Z,97485.21
2019-01-09T18:59:13.489Z,97485.39
2019-01-09T19:01:42.522Z,97495.21
2019-01-09T19:04:11.568Z,97495.98
2019-01-09T19:06:40.565Z,97499.09
2019-01-09T19:09:10.781Z,97510.75
2019-01-09T19:11:39.789Z,97509.09
2019-01-09T19:14:08.764Z,97510.19
2019-01-09T19:16:37.760Z,97513.48
2019-01-09T19:19:06.731Z,97523.14
2019-01-09T19:21:35.713Z,97527.70
2019-01-09T19:24:04.878Z,97528.66
2019-01-09T19:26:33.776Z,97530.25
2019-01-09T19:29:02.778Z,97538.43
2019-01-09T19:31:31.950Z,97540.91
2019-01-09T19:34:00.876Z,97547.78
2019-01-09T19:36:29.771Z,97539.44
2019-01-09T19:38:58.732Z,97547.17
2019-01-09T19:41:27.652Z,97543.90
2019-01-09T19:43:56.545Z,97551.80
2019-01-09T19:46:25.606Z,97560.48
2019-01-09T19:48:54.571Z,97557.05
2019-01-09T19:51:23.465Z,97562.45
2019-01-09T19:53:52.475Z,97567.16
2019-01-09T19:56:21.468Z,97568.81
2019-01-09T19:58:50.449Z,97568.14
2019-01-09T20:01:19.573Z,97574.48
2019-01-09T20:03:48.616Z,97578.57
2019-01-09T20:06:17.597Z,97577.27
2019-01-09T20:08:46.564Z,97575.78
2019-01-09T20:11:15.538Z,97572.84
2019-01-09T20:13:44.495Z,97574.83
2019-01-09T20:16:13.465Z,97577.75
2019-01-09T20:18:42.427Z,97584.97
2019-01-09T20:21:11.414Z,97579.70
2019-01-09T20:23:40.394Z,97584.49
2019-01-09T20:26:09.348Z,97575.30
2019-01-09T20:28:38.398Z,97584.66
2019-01-09T20:31:07.367Z,97592.70
2019-01-09T20:33:36.355Z,97594.14
2019-01-09T20:36:05.581Z,97594.19
2019-01-09T20:38:34.551Z,97598.96
2019-01-09T20:41:03.566Z,97597.30
2019-01-09T20:43:32.565Z,97597.48
2019-01-09T20:46:01.539Z,97595.98
2019-01-09T20:48:30.523Z,97599.63
2019-01-09T20:50:59.440Z,97599.74
2019-01-09T20:53:28.455Z,97608.56
2019-01-09T20:55:57.425Z,97614.81
2019-01-09T20:58:26.397Z,97622.02
2019-01-09T21:00:55.301Z,97613.63
2019-01-09T21:03:24.284Z,97619.39
2019-01-09T21:05:53.834Z,97618.27
2019-01-09T21:08:23.073Z,97614.99
2019-01-09T21:10:51.964Z,97619.94
2019-01-09T21:13:20.926Z,97626.62
2019-01-09T21:15:49.867Z,97624.66
2019-01-09T21:18:18.799Z,97622.87
2019-01-09T21:20:47.692Z,97628.78
2019-01-09T21:23:16.580Z,97632.06
2019-01-09T21:25:45.646Z,97628.64
2019-01-09T21:28:14.599Z,97634.53
2019-01-09T21:30:43.585Z,97635.50
2019-01-09T21:33:12.501Z,97635.50
2019-01-09T21:35:41.500Z,97627.62
2019-01-09T21:38:10.723Z,97630.13
2019-01-09T21:40:39.747Z,97631.58
2019-01-09T21:43:08.708Z,97632.75
2019-01-09T21:45:37.701Z,97634.20
2019-01-09T21:48:07.024Z,97639.63
2019-01-09T21:50:35.948Z,97637.52
2019-01-09T21:53:05.429Z,97642.42
2019-01-09T21:55:34.436Z,97646.18
2019-01-09T21:58:03.260Z,97650.41
2019-01-09T22:00:32.205Z,97647.30
2019-01-09T22:03:01.156Z,97647.64
2019-01-09T22:05:30.330Z,97645.69
2019-01-09T22:07:59.303Z,97650.94
2019-01-09T22:10:33.775Z,97663.88
2019-01-09T22:13:02.941Z,97655.16
2019-01-09T22:15:31.916Z,97654.03
2019-01-09T22:18:00.874Z,97658.93
2019-01-09T22:20:29.846Z,97654.34
2019-01-09T22:22:58.807Z,97656.97
2019-01-09T22:25:27.726Z,97663.03
2019-01-09T22:27:56.697Z,97655.05
2019-01-09T22:30:26.941Z,97664.52
2019-01-09T22:32:55.910Z,97668.77
2019-01-09T22:35:24.886Z,97675.97
2019-01-09T22:37:53.950Z,97671.25
2019-01-09T22:40:22.906Z,97675.84
2019-01-09T22:42:51.953Z,97676.97
2019-01-09T22:45:21.119Z,97674.00
2019-01-09T22:47:50.093Z,97676.97
2019-01-09T22:50:21.211Z,97683.05
2019-01-09T22:52:50.179Z,97682.40
2019-01-09T22:55:19.131Z,97683.72
2019-01-09T22:57:48.207Z,97688.48
2019-01-09T23:00:37.425Z,97681.44
2019-01-09T23:03:07.078Z,97686.86
2019-01-09T23:05:36.433Z,97689.48
2019-01-09T23:08:05.733Z,97685.38
2019-01-09T23:10:34.602Z,97683.54
2019-01-09T23:13:03.681Z,97687.99
2019-01-09T23:15:32.660Z,97691.09
2019-01-09T23:18:01.581Z,97689.61
2019-01-09T23:20:30.790Z,97691.09
2019-01-09T23:22:59.856Z,97689.13
2019-01-09T23:25:28.816Z,97706.35
2019-01-09T23:27:57.720Z,97700.27
2019-01-09T23:30:26.934Z,97699.62
2019-01-09T23:32:56.454Z,97705.04
2019-01-09T23:35:25.436Z,97704.87
2019-01-09T23:37:54.410Z,97708.31
2019-01-09T23:40:23.462Z,97713.38
2019-01-09T23:42:52.516Z,97708.48
2019-01-09T23:45:21.400Z,97712.41
2019-01-09T23:47:50.258Z,97716.18
2019-01-09T23:50:19.211Z,97718.14
2019-01-09T23:52:48.219Z,97720.24
2019-01-09T23:55:17.187Z,97718.80
2019-01-09T23:57:46.245Z,97721.42
